createdAt,value
2023-03-08T00:00:57.929Z,2.50
2023-03-08T00:03:29.377Z,2.20
2023-03-08T00:06:00.715Z,2.10
2023-03-08T00:08:32.055Z,2.10
2023-03-08T00:11:04.786Z,2.10
2023-03-08T00:13:36.449Z,2.10
2023-03-08T00:16:10.388Z,2.10
2023-03-08T00:18:42.273Z,2.00
2023-03-08T00:21:15.187Z,2.10
2023-03-08T00:23:46.665Z,2.00
2023-03-08T00:26:18.292Z,2.00
2023-03-08T00:28:49.606Z,2.00
2023-03-08T00:31:21.093Z,2.00
2023-03-08T00:33:55.105Z,1.90
2023-03-08T00:36:26.815Z,2.00
2023-03-08T00:38:59.255Z,2.10
2023-03-08T00:41:30.735Z,2.00
2023-03-08T00:44:01.893Z,1.80
2023-03-08T00:46:33.259Z,1.50
2023-03-08T00:49:05.216Z,1.40
2023-03-08T00:51:36.519Z,1.40
2023-03-08T00:54:08.471Z,1.40
2023-03-08T00:56:40.052Z,1.40
2023-03-08T00:59:11.290Z,1.40
2023-03-08T01:01:42.937Z,1.50
2023-03-08T01:04:14.164Z,1.50
2023-03-08T01:06:46.579Z,1.60
2023-03-08T01:09:18.022Z,1.70
2023-03-08T01:11:49.183Z,2.00
2023-03-08T01:14:20.388Z,1.50
2023-03-08T01:16:51.791Z,1.20
2023-03-08T01:19:23.085Z,1.30
2023-03-08T01:21:54.558Z,1.40
2023-03-08T01:24:25.933Z,1.30
2023-03-08T01:26:59.079Z,1.40
2023-03-08T01:29:30.547Z,1.40
2023-03-08T01:32:01.896Z,1.40
2023-03-08T01:34:33.167Z,1.20
2023-03-08T01:37:05.525Z,1.40
2023-03-08T01:39:36.736Z,1.40
2023-03-08T01:42:08.752Z,1.10
2023-03-08T01:44:57.142Z,0.90
2023-03-08T01:47:30.484Z,0.80
2023-03-08T01:50:04.489Z,0.80
2023-03-08T01:52:38.509Z,0.80
2023-03-08T01:55:13.723Z,1.00
2023-03-08T01:57:47.180Z,1.40
2023-03-08T02:00:23.067Z,1.70
2023-03-08T02:02:56.930Z,1.40
2023-03-08T02:05:29.325Z,1.30
2023-03-08T02:08:00.569Z,1.20
2023-03-08T02:10:32.481Z,0.90
2023-03-08T02:13:04.355Z,0.80
2023-03-08T02:15:35.908Z,1.00
2023-03-08T02:18:07.160Z,1.10
2023-03-08T02:20:40.712Z,1.10
2023-03-08T02:23:14.166Z,1.50
2023-03-08T02:25:47.113Z,1.40
2023-03-08T02:28:18.480Z,1.00
2023-03-08T02:30:50.565Z,1.30
2023-03-08T02:33:21.877Z,1.60
2023-03-08T02:35:53.085Z,1.80
2023-03-08T02:38:24.795Z,1.70
2023-03-08T02:40:56.448Z,1.40
2023-03-08T02:43:27.959Z,1.10
2023-03-08T02:45:59.344Z,0.90
2023-03-08T02:48:30.655Z,0.80
2023-03-08T02:51:01.999Z,0.70
2023-03-08T02:53:33.662Z,0.70
2023-03-08T02:56:05.052Z,0.80
2023-03-08T02:58:36.144Z,0.90
2023-03-08T03:01:09.073Z,0.90
2023-03-08T03:03:40.420Z,1.00
2023-03-08T03:06:17.337Z,1.20
2023-03-08T03:08:49.908Z,1.10
2023-03-08T03:11:23.181Z,1.00
2023-03-08T03:13:59.233Z,0.90
2023-03-08T03:16:30.954Z,1.00
2023-03-08T03:19:02.299Z,1.10
2023-03-08T03:21:33.984Z,1.10
2023-03-08T03:24:05.379Z,1.20
2023-03-08T03:26:36.768Z,1.40
2023-03-08T03:29:07.892Z,1.60
2023-03-08T03:31:39.146Z,1.70
2023-03-08T03:34:10.457Z,1.70
2023-03-08T03:36:41.677Z,1.80
2023-03-08T03:39:12.998Z,2.00
2023-03-08T03:41:44.120Z,2.20
2023-03-08T03:44:15.671Z,2.20
2023-03-08T03:46:46.898Z,2.30
2023-03-08T03:49:18.009Z,2.40
2023-03-08T03:51:49.207Z,2.30
2023-03-08T03:54:20.708Z,2.20
2023-03-08T03:56:52.116Z,2.10
2023-03-08T03:59:25.667Z,2.20
2023-03-08T04:01:56.137Z,2.30
2023-03-08T04:04:27.354Z,2.50
2023-03-08T04:06:58.671Z,2.70
2023-03-08T04:09:29.928Z,2.80
2023-03-08T04:12:02.999Z,2.70
2023-03-08T04:14:34.478Z,2.70
2023-03-08T04:17:06.315Z,2.70
2023-03-08T04:19:37.839Z,2.30
2023-03-08T04:22:09.160Z,2.20
2023-03-08T04:24:40.421Z,2.40
2023-03-08T04:27:12.743Z,2.50
2023-03-08T04:29:44.036Z,2.70
2023-03-08T04:32:15.472Z,2.70
2023-03-08T04:34:46.646Z,2.70
2023-03-08T04:37:18.145Z,2.70
2023-03-08T04:39:51.015Z,2.80
2023-03-08T04:42:22.244Z,2.90
2023-03-08T04:44:53.457Z,3.00
2023-03-08T04:47:24.719Z,2.90
2023-03-08T04:49:55.947Z,2.90
2023-03-08T04:52:27.499Z,2.90
2023-03-08T04:54:59.257Z,2.80
2023-03-08T04:57:30.460Z,2.70
2023-03-08T05:00:01.798Z,2.80
2023-03-08T05:02:33.625Z,2.80
2023-03-08T05:05:05.297Z,2.70
2023-03-08T05:07:36.574Z,2.50
2023-03-08T05:10:09.280Z,2.50
2023-03-08T05:12:40.638Z,2.40
2023-03-08T05:15:13.570Z,2.30
2023-03-08T05:17:44.983Z,2.20
2023-03-08T05:20:16.975Z,2.30
2023-03-08T05:22:57.939Z,2.60
2023-03-08T05:25:21.271Z,2.70
2023-03-08T05:27:52.720Z,2.80
2023-03-08T05:30:24.500Z,2.70
2023-03-08T05:32:55.862Z,2.50
2023-03-08T05:35:26.989Z,2.40
2023-03-08T05:37:58.335Z,2.30
2023-03-08T05:40:30.084Z,2.30
2023-03-08T05:43:01.326Z,2.30
2023-03-08T05:45:32.878Z,2.40
2023-03-08T05:48:04.229Z,2.50
2023-03-08T05:50:35.724Z,2.50
2023-03-08T05:53:06.994Z,2.60
2023-03-08T05:55:38.750Z,2.60
2023-03-08T05:58:09.880Z,2.70
2023-03-08T06:00:40.985Z,2.70
2023-03-08T06:05:50.266Z,2.80
2023-03-08T06:08:23.558Z,2.80
2023-03-08T06:10:55.017Z,2.80
2023-03-08T06:13:26.234Z,2.60
2023-03-08T06:15:59.556Z,2.60
2023-03-08T06:18:31.111Z,2.60
2023-03-08T06:21:03.813Z,2.60
2023-03-08T06:23:36.268Z,2.70
2023-03-08T06:26:09.851Z,2.70
2023-03-08T06:28:41.626Z,2.80
2023-03-08T06:31:14.707Z,2.80
2023-03-08T06:36:24.886Z,2.80
2023-03-08T06:38:56.012Z,2.80
2023-03-08T06:41:27.308Z,2.90
2023-03-08T06:43:58.426Z,3.00
2023-03-08T06:46:30.225Z,2.90
2023-03-08T06:49:03.537Z,2.90
2023-03-08T06:51:35.030Z,3.00
2023-03-08T06:54:06.436Z,3.00
2023-03-08T06:56:37.816Z,3.00
2023-03-08T06:59:09.154Z,3.00
2023-03-08T07:01:40.705Z,3.10
2023-03-08T07:04:11.968Z,3.10
2023-03-08T07:06:43.190Z,3.10
2023-03-08T07:09:14.725Z,3.30
2023-03-08T07:11:45.950Z,3.40
2023-03-08T07:14:17.578Z,3.40
2023-03-08T07:16:48.840Z,3.50
2023-03-08T07:19:20.130Z,3.50
2023-03-08T07:21:51.502Z,3.50
2023-03-08T07:24:23.036Z,3.60
2023-03-08T07:26:54.225Z,3.70
2023-03-08T07:29:25.745Z,3.80
2023-03-08T07:31:57.014Z,3.70
2023-03-08T07:34:28.620Z,3.70
2023-03-08T07:39:40.203Z,3.70
2023-03-08T07:42:12.844Z,3.80
2023-03-08T07:44:43.984Z,3.90
2023-03-08T07:47:15.193Z,4.00
2023-03-08T07:49:46.383Z,4.10
2023-03-08T07:52:17.924Z,4.10
2023-03-08T07:54:49.072Z,4.20
2023-03-08T07:57:20.533Z,4.30
2023-03-08T07:59:54.413Z,4.40
2023-03-08T08:02:25.377Z,4.40
2023-03-08T08:04:56.387Z,4.50
2023-03-08T08:07:28.374Z,4.50
2023-03-08T08:09:59.376Z,4.50
2023-03-08T08:12:30.780Z,4.50
2023-03-08T08:15:01.864Z,4.60
2023-03-08T08:17:32.835Z,4.60
2023-03-08T08:20:06.078Z,4.70
2023-03-08T08:22:39.339Z,4.80
2023-03-08T08:25:12.830Z,4.90
2023-03-08T08:27:44.245Z,5.00
2023-03-08T08:30:17.778Z,5.00
2023-03-08T08:32:48.960Z,5.00
2023-03-08T08:35:20.788Z,5.10
2023-03-08T08:37:51.797Z,5.00
2023-03-08T08:40:22.970Z,5.10
2023-03-08T08:42:53.857Z,5.20
2023-03-08T08:45:24.857Z,5.20
2023-03-08T08:47:55.743Z,5.20
2023-03-08T08:50:26.546Z,5.20
2023-03-08T08:52:59.111Z,5.30
2023-03-08T08:55:29.999Z,5.40
2023-03-08T08:58:01.184Z,5.60
2023-03-08T09:00:32.598Z,5.70
2023-03-08T09:03:04.479Z,5.80
2023-03-08T09:05:38.792Z,5.90
2023-03-08T09:08:10.373Z,6.00
2023-03-08T09:10:42.248Z,6.20
2023-03-08T09:13:14.283Z,6.50
2023-03-08T09:15:45.647Z,6.80
2023-03-08T09:18:17.119Z,6.90
2023-03-08T09:20:48.380Z,7.00
2023-03-08T09:23:19.477Z,7.30
2023-03-08T09:26:00.344Z,7.60
2023-03-08T09:28:31.538Z,7.60
2023-03-08T09:31:04.355Z,7.70
2023-03-08T09:33:35.670Z,7.60
2023-03-08T09:36:08.196Z,7.40
2023-03-08T09:38:39.891Z,7.50
2023-03-08T09:41:26.637Z,7.60
2023-03-08T09:44:06.498Z,7.60
2023-03-08T09:46:41.203Z,7.60
2023-03-08T09:49:16.424Z,7.90
2023-03-08T09:51:50.741Z,8.10
2023-03-08T09:54:25.461Z,8.30
2023-03-08T09:56:57.405Z,8.30
2023-03-08T09:59:32.923Z,8.10
2023-03-08T10:04:59.604Z,8.10
2023-03-08T10:10:19.309Z,8.00
2023-03-08T10:12:59.554Z,8.00
2023-03-08T10:15:33.227Z,7.90
2023-03-08T10:18:07.630Z,8.00
2023-03-08T10:20:39.706Z,8.10
2023-03-08T10:23:16.253Z,8.40
2023-03-08T10:25:48.892Z,8.60
2023-03-08T10:28:21.976Z,8.80
2023-03-08T10:30:55.655Z,9.00
2023-03-08T10:33:29.619Z,9.10
2023-03-08T10:36:03.162Z,9.00
2023-03-08T10:38:37.504Z,8.70
2023-03-08T10:41:14.633Z,8.70
2023-03-08T10:44:04.414Z,8.80
2023-03-08T10:46:35.599Z,8.80
2023-03-08T10:49:17.612Z,9.00
2023-03-08T10:51:59.967Z,9.10
2023-03-08T10:54:32.064Z,9.20
2023-03-08T10:57:04.520Z,9.30
2023-03-08T10:59:38.094Z,9.40
2023-03-08T11:02:21.640Z,9.20
2023-03-08T11:04:57.698Z,9.10
2023-03-08T11:07:31.624Z,9.00
2023-03-08T11:10:21.541Z,8.90
2023-03-08T11:12:54.303Z,8.70
2023-03-08T11:15:25.797Z,8.80
2023-03-08T11:17:59.979Z,8.90
2023-03-08T11:20:34.189Z,8.80
2023-03-08T11:23:14.053Z,8.80
2023-03-08T11:25:48.113Z,8.70
2023-03-08T11:28:34.684Z,8.80
2023-03-08T11:31:23.055Z,8.60
2023-03-08T11:34:29.148Z,8.50
2023-03-08T11:39:44.420Z,8.30
2023-03-08T11:42:21.729Z,8.30
2023-03-08T11:45:12.848Z,8.20
2023-03-08T11:48:03.193Z,8.20
2023-03-08T11:50:38.305Z,8.30
2023-03-08T11:53:18.967Z,8.20
2023-03-08T11:56:28.008Z,8.20
2023-03-08T11:59:03.007Z,8.10
2023-03-08T12:01:36.870Z,8.10
2023-03-08T12:04:11.351Z,8.10
2023-03-08T12:06:44.128Z,8.00
2023-03-08T12:09:20.986Z,8.00
2023-03-08T12:11:55.573Z,8.10
2023-03-08T12:14:30.686Z,8.20
2023-03-08T12:17:08.362Z,8.20
2023-03-08T12:19:44.420Z,8.20
2023-03-08T12:22:27.527Z,8.20
2023-03-08T12:25:02.537Z,8.20
2023-03-08T12:27:36.485Z,8.30
2023-03-08T12:30:15.674Z,8.20
2023-03-08T12:32:48.356Z,8.10
2023-03-08T12:35:31.519Z,7.90
2023-03-08T12:38:05.364Z,7.80
2023-03-08T12:40:44.635Z,7.60
2023-03-08T12:46:06.792Z,7.70
2023-03-08T12:48:41.417Z,7.80
2023-03-08T12:51:22.149Z,7.90
2023-03-08T12:54:01.956Z,8.00
2023-03-08T12:56:35.788Z,8.10
2023-03-08T12:59:26.581Z,8.10
2023-03-08T13:02:06.047Z,8.20
2023-03-08T13:04:41.928Z,8.20
2023-03-08T13:07:22.597Z,8.20
2023-03-08T13:10:02.877Z,8.20
2023-03-08T13:12:42.797Z,8.10
2023-03-08T13:15:27.295Z,8.20
2023-03-08T13:18:06.435Z,8.10
2023-03-08T13:20:54.222Z,8.20
2023-03-08T13:23:30.988Z,8.20
2023-03-08T13:26:10.692Z,8.20
2023-03-08T13:28:47.682Z,8.20
2023-03-08T13:31:19.157Z,8.20
2023-03-08T13:33:52.537Z,8.30
2023-03-08T13:36:25.493Z,8.30
2023-03-08T13:39:05.691Z,8.30
2023-03-08T13:41:39.969Z,8.30
2023-03-08T13:44:17.335Z,8.30
2023-03-08T13:46:50.553Z,8.50
2023-03-08T13:49:25.666Z,8.70
2023-03-08T13:51:59.002Z,8.80
2023-03-08T13:54:32.837Z,8.90
2023-03-08T13:57:05.704Z,8.90
2023-03-08T13:59:38.231Z,8.90
2023-03-08T14:02:21.691Z,8.90
2023-03-08T14:04:53.048Z,8.90
2023-03-08T14:07:26.598Z,8.80
2023-03-08T14:09:58.141Z,8.80
2023-03-08T14:12:31.703Z,8.80
2023-03-08T14:15:05.357Z,8.90
2023-03-08T14:17:37.811Z,8.90
2023-03-08T14:20:19.000Z,8.80
2023-03-08T14:22:52.017Z,8.80
2023-03-08T14:25:29.508Z,8.60
2023-03-08T14:28:00.845Z,8.40
2023-03-08T14:30:32.637Z,8.30
2023-03-08T14:33:09.386Z,8.40
2023-03-08T14:35:43.018Z,8.40
2023-03-08T14:38:20.714Z,8.40
2023-03-08T14:40:52.727Z,8.40
2023-03-08T14:43:25.894Z,8.40
2023-03-08T14:45:59.016Z,8.40
2023-03-08T14:48:32.925Z,8.40
2023-03-08T14:51:05.698Z,8.50
2023-03-08T14:53:38.895Z,8.40
2023-03-08T14:56:14.106Z,8.40
2023-03-08T14:58:48.886Z,8.60
2023-03-08T15:01:28.236Z,8.70
2023-03-08T15:04:00.128Z,8.80
2023-03-08T15:06:33.252Z,8.70
2023-03-08T15:09:06.067Z,8.70
2023-03-08T15:11:37.774Z,8.70
2023-03-08T15:14:10.099Z,8.60
2023-03-08T15:16:40.996Z,8.70
2023-03-08T15:19:13.576Z,8.70
2023-03-08T15:21:44.905Z,8.70
2023-03-08T15:24:19.017Z,8.70
2023-03-08T15:26:50.104Z,8.60
2023-03-08T15:29:29.837Z,8.60
2023-03-08T15:32:01.748Z,8.60
2023-03-08T15:34:32.911Z,8.60
2023-03-08T15:37:05.391Z,8.60
2023-03-08T15:39:36.558Z,8.60
2023-03-08T15:42:07.978Z,8.70
2023-03-08T15:44:38.870Z,8.70
2023-03-08T15:47:11.837Z,8.70
2023-03-08T15:49:43.282Z,8.70
2023-03-08T15:52:14.488Z,8.80
2023-03-08T15:54:47.105Z,8.80
2023-03-08T15:57:17.941Z,8.80
2023-03-08T15:59:49.438Z,8.80
2023-03-08T16:02:21.815Z,8.90
2023-03-08T16:04:54.181Z,9.00
2023-03-08T16:07:25.708Z,9.10
2023-03-08T16:09:56.616Z,9.10
2023-03-08T16:12:27.631Z,9.10
2023-03-08T16:14:58.804Z,9.10
2023-03-08T16:17:31.255Z,9.10
2023-03-08T16:20:02.115Z,9.00
2023-03-08T16:22:32.995Z,9.00
2023-03-08T16:25:04.108Z,9.00
2023-03-08T16:27:38.111Z,9.00
2023-03-08T16:30:13.262Z,9.00
2023-03-08T16:32:44.164Z,9.00
2023-03-08T16:35:15.044Z,9.00
2023-03-08T16:37:45.989Z,9.00
2023-03-08T16:40:17.222Z,9.00
2023-03-08T16:42:48.460Z,9.00
2023-03-08T16:45:19.354Z,8.90
2023-03-08T16:47:50.338Z,8.90
2023-03-08T16:50:21.483Z,8.90
2023-03-08T16:52:55.756Z,8.80
2023-03-08T16:55:27.040Z,8.90
2023-03-08T16:57:57.898Z,8.80
2023-03-08T17:00:29.312Z,8.70
2023-03-08T17:03:00.718Z,8.80
2023-03-08T17:05:32.253Z,8.80
2023-03-08T17:08:03.397Z,8.70
2023-03-08T17:10:38.228Z,8.70
2023-03-08T17:13:10.356Z,8.70
2023-03-08T17:15:47.003Z,8.70
2023-03-08T17:18:17.864Z,8.80
2023-03-08T17:20:48.901Z,8.80
2023-03-08T17:23:21.026Z,8.80
2023-03-08T17:25:52.745Z,8.80
2023-03-08T17:28:23.562Z,8.80
2023-03-08T17:30:54.510Z,8.70
2023-03-08T17:33:26.502Z,8.80
2023-03-08T17:35:59.529Z,8.80
2023-03-08T17:38:30.697Z,8.90
2023-03-08T17:41:01.825Z,8.80
2023-03-08T17:43:32.742Z,8.80
2023-03-08T17:46:05.992Z,8.90
2023-03-08T17:48:38.594Z,9.00
2023-03-08T17:51:11.619Z,9.00
2023-03-08T17:53:43.492Z,9.00
2023-03-08T17:56:16.019Z,9.00
2023-03-08T17:58:47.005Z,9.00
2023-03-08T18:01:20.792Z,9.00
2023-03-08T18:03:52.342Z,9.00
2023-03-08T18:06:26.471Z,9.00
2023-03-08T18:08:57.688Z,9.00
2023-03-08T18:11:29.386Z,9.00
2023-03-08T18:14:00.212Z,9.00
2023-03-08T18:16:32.900Z,9.00
2023-03-08T18:19:04.134Z,9.00
2023-03-08T18:21:36.976Z,9.00
2023-03-08T18:24:10.891Z,9.00
2023-03-08T18:26:42.006Z,9.00
2023-03-08T18:29:13.476Z,8.90
2023-03-08T18:31:44.355Z,8.90
2023-03-08T18:34:15.243Z,8.80
2023-03-08T18:36:46.095Z,8.80
2023-03-08T18:39:16.881Z,8.80
2023-03-08T18:41:47.615Z,8.80
2023-03-08T18:44:18.498Z,8.80
2023-03-08T18:46:49.409Z,8.80
2023-03-08T18:49:20.173Z,8.80
2023-03-08T18:51:51.119Z,8.90
2023-03-08T18:54:22.529Z,9.00
2023-03-08T18:56:53.935Z,8.90
2023-03-08T18:59:25.214Z,9.00
2023-03-08T19:01:56.088Z,8.90
2023-03-08T19:04:27.676Z,8.90
2023-03-08T19:06:58.456Z,9.00
2023-03-08T19:09:29.178Z,9.00
2023-03-08T19:12:00.408Z,9.00
2023-03-08T19:14:31.538Z,8.90
2023-03-08T19:17:02.355Z,8.90
2023-03-08T19:19:34.105Z,8.90
2023-03-08T19:22:06.567Z,8.90
2023-03-08T19:24:37.439Z,8.90
2023-03-08T19:27:08.354Z,8.90
2023-03-08T19:29:39.566Z,8.90
2023-03-08T19:32:13.954Z,8.80
2023-03-08T19:34:45.732Z,8.70
2023-03-08T19:37:17.049Z,8.80
2023-03-08T19:39:48.018Z,8.70
2023-03-08T19:42:19.304Z,8.70
2023-03-08T19:44:51.057Z,8.70
2023-03-08T19:47:22.238Z,8.70
2023-03-08T19:49:54.367Z,8.70
2023-03-08T19:52:25.476Z,8.60
2023-03-08T19:54:56.682Z,8.60
2023-03-08T19:57:27.718Z,8.70
2023-03-08T19:59:59.535Z,8.80
2023-03-08T20:02:30.874Z,8.80
2023-03-08T20:05:02.764Z,8.90
2023-03-08T20:07:34.818Z,9.00
2023-03-08T20:10:15.720Z,9.00
2023-03-08T20:12:39.500Z,9.00
2023-03-08T20:15:12.681Z,8.90
2023-03-08T20:17:43.588Z,8.90
2023-03-08T20:20:15.480Z,8.90
2023-03-08T20:22:46.566Z,8.90
2023-03-08T20:25:18.070Z,8.80
2023-03-08T20:27:49.182Z,8.70
2023-03-08T20:30:21.752Z,8.60
2023-03-08T20:32:53.456Z,8.60
2023-03-08T20:35:24.564Z,8.70
2023-03-08T20:37:55.540Z,8.70
2023-03-08T20:40:26.387Z,8.80
2023-03-08T20:42:58.137Z,8.90
2023-03-08T20:45:29.984Z,8.90
2023-03-08T20:48:00.883Z,8.90
2023-03-08T20:50:32.186Z,8.90
2023-03-08T20:55:42.145Z,9.00
2023-03-08T20:58:12.881Z,9.10
2023-03-08T21:00:43.671Z,9.10
2023-03-08T21:03:14.757Z,9.00
2023-03-08T21:05:46.159Z,9.00
2023-03-08T21:08:17.295Z,9.00
2023-03-08T21:10:48.139Z,9.00
2023-03-08T21:13:18.848Z,9.10
2023-03-08T21:15:49.732Z,9.20
2023-03-08T21:18:20.634Z,9.20
2023-03-08T21:20:53.866Z,9.20
2023-03-08T21:23:24.693Z,9.20
2023-03-08T21:25:57.602Z,9.10
2023-03-08T21:28:28.585Z,9.20
2023-03-08T21:30:59.371Z,9.20
2023-03-08T21:33:30.176Z,9.30
2023-03-08T21:36:01.684Z,9.40
2023-03-08T21:38:32.533Z,9.40
2023-03-08T21:41:03.452Z,9.40
2023-03-08T21:43:34.377Z,9.40
2023-03-08T21:46:07.932Z,9.30
2023-03-08T21:48:38.665Z,9.30
2023-03-08T21:51:10.946Z,9.30
2023-03-08T21:53:42.265Z,9.40
2023-03-08T21:56:16.084Z,9.40
2023-03-08T21:58:47.371Z,9.50
2023-03-08T22:01:23.415Z,9.50
2023-03-08T22:03:55.225Z,9.50
2023-03-08T22:06:27.004Z,9.50
2023-03-08T22:09:16.531Z,9.50
2023-03-08T22:11:47.451Z,9.50
2023-03-08T22:14:18.210Z,9.50
2023-03-08T22:16:49.073Z,9.50
2023-03-08T22:19:19.876Z,9.60
2023-03-08T22:21:50.768Z,9.60
2023-03-08T22:24:21.573Z,9.60
2023-03-08T22:26:52.533Z,9.60
2023-03-08T22:29:23.350Z,9.80
2023-03-08T22:31:54.208Z,9.90
2023-03-08T22:34:25.243Z,9.80
2023-03-08T22:36:55.990Z,9.80
2023-03-08T22:39:28.088Z,9.80
2023-03-08T22:41:59.001Z,9.80
2023-03-08T22:44:29.987Z,9.70
2023-03-08T22:47:00.971Z,9.60
2023-03-08T22:49:31.716Z,9.50
2023-03-08T22:52:02.597Z,9.40
2023-03-08T22:54:33.547Z,9.30
2023-03-08T22:57:04.775Z,9.30
2023-03-08T22:59:35.585Z,9.40
2023-03-08T23:02:06.796Z,9.40
2023-03-08T23:04:37.726Z,9.30
2023-03-08T23:07:08.930Z,9.20
2023-03-08T23:09:39.955Z,9.20
2023-03-08T23:12:12.019Z,9.20
2023-03-08T23:14:44.993Z,9.20
2023-03-08T23:17:15.476Z,9.20
2023-03-08T23:19:46.252Z,9.20
2023-03-08T23:22:17.186Z,9.30
2023-03-08T23:24:48.824Z,9.20
2023-03-08T23:27:19.782Z,9.20
2023-03-08T23:29:52.079Z,9.10
2023-03-08T23:32:23.106Z,9.10
2023-03-08T23:34:53.887Z,9.10
2023-03-08T23:37:24.756Z,9.10
2023-03-08T23:39:55.625Z,9.30
2023-03-08T23:42:26.519Z,9.30
2023-03-08T23:44:57.273Z,9.20
2023-03-08T23:47:28.208Z,9.20
2023-03-08T23:49:59.255Z,9.10
2023-03-08T23:52:30.185Z,9.20
2023-03-08T23:55:00.982Z,9.20
2023-03-08T23:57:31.994Z,9.20
